シャルル・ド・ゴール国際空港(パリ)の過去48時間の天気

シャルル・ド・ゴール国際空港(パリ) (Paris-Aeroport Charles De Gaulle)

現在時刻: 11/21 13:18 CET (11/21 12:18 UTC) 以下の時間は現地時間です。

過去48時間のMETAR気象情報
時間 風向 風速(m/s) 視程 気温(℃) 湿度(%) 気圧(hPa) 天気現象
21 13:00 南東 5 10km以上 9 66 1004
21 12:30 南東 5 10km以上 8 71 1004
21 12:00 南南東 4 9000m 8 71 1005
21 11:30 南東 5 9000m 6 76 1005
21 11:00 南東 5 9000m 6 76 1005
21 10:30 南東 5 8000m 5 81 1005
21 10:00 南東 4 6000m 4 81 1005
21 09:30 南東 4 5000m 3 87 1006 もや
21 09:00 南東 4 5000m 2 93 1006 もや
21 08:30 東南東 4 4000m 2 93 1006 もや
21 08:00 南東 4 4000m 2 87 1006 もや
21 07:30 南東 4 4000m 2 87 1006 もや
21 07:00 東南東 5 4000m 2 87 1006 もや
21 06:30 南東 5 4000m 2 87 1006 もや
21 06:00 東南東 3 4500m 1 93 1006 もや
21 05:30 東南東 4 5000m 1 93 1006 もや
21 05:00 3 5000m 1 93 1006 もや
21 04:30 東南東 3 5000m 1 93 1006 もや
21 04:00 4 5000m 1 93 1006 もや
21 03:30 東南東 4 6000m 1 93 1006
21 03:00 東南東 5 6000m 1 93 1007
21 02:30 3 6000m 1 93 1007
21 02:00 3 6000m 0 93 1007
21 01:30 東北東 3 6000m 0 93 1007
21 01:00 北東 3 6000m 0 93 1007
21 00:30 3 6000m 1 93 1008
21 00:00 3 6000m 1 93 1008
20 23:30 東北東 3 6000m 1 93 1008
20 23:00 3 7000m 2 87 1008
20 22:30 3 7000m 2 87 1009
20 22:00 東南東 5 7000m 2 87 1009
20 21:30 東南東 6 10km以上 2 87 1009
20 21:00 東南東 6 10km以上 2 87 1009
20 20:30 東南東 6 10km以上 2 87 1009
LFPG 211200Z 14010KT CAVOK 09/03 Q1004 NOSIG
LFPG 211130Z 14010KT 110V170 CAVOK 08/03 Q1004 NOSIG
LFPG 211100Z 15007KT 9000 NSC 08/03 Q1005 NOSIG
LFPG 211030Z 14009KT 110V170 9000 NSC 06/02 Q1005 NOSIG
LFPG 211000Z 13010KT 9000 NSC 06/02 Q1005 NOSIG
LFPG 210930Z 13009KT 8000 NSC 05/02 Q1005 NOSIG
LFPG 210900Z 13008KT 6000 NSC 04/01 Q1005 NOSIG
LFPG 210830Z 13007KT 5000 BR NSC 03/01 Q1006 NOSIG
LFPG 210800Z 13008KT 5000 BR NSC 02/01 Q1006 NOSIG
LFPG 210730Z 12008KT 4000 BR NSC 02/01 Q1006 NOSIG
LFPG 210700Z 13008KT 4000 BR NSC 02/00 Q1006 NOSIG
LFPG 210630Z 13008KT 4000 BR NSC 02/00 Q1006 NOSIG
LFPG 210600Z 12009KT 4000 BR NSC 02/00 Q1006 NOSIG
LFPG 210530Z 13010KT 4000 BR NSC 02/00 Q1006 NOSIG
LFPG 210500Z 11006KT 4500 BR NSC 01/00 Q1006 BECMG 4000 BR
LFPG 210430Z 11008KT 5000 BR NSC 01/00 Q1006 BECMG 4000 BR
LFPG 210400Z 10006KT 5000 BR NSC 01/00 Q1006 BECMG 4000 BR
LFPG 210330Z 11006KT 5000 BR NSC 01/M00 Q1006 BECMG 4000 BR
LFPG 210300Z 10007KT 5000 BR NSC 01/00 Q1006 BECMG 4000 BR
LFPG 210230Z 11008KT 6000 NSC 01/00 Q1006 BECMG 4000 BR
LFPG 210200Z 11009KT 6000 NSC 01/M00 Q1007 BECMG 4000 BR
LFPG 210130Z 09006KT 6000 NSC 01/M00 Q1007 BECMG 4000 BR
LFPG 210100Z 08005KT 6000 NSC 00/M01 Q1007 BECMG 4000 BR
LFPG 210030Z 07005KT 6000 NSC 00/M01 Q1007 BECMG 4000 BR
LFPG 210000Z 05005KT 6000 NSC 00/M01 Q1007 BECMG 4000 BR
LFPG 202330Z 08006KT 6000 NSC 01/00 Q1008 NOSIG
LFPG 202300Z 09006KT 6000 NSC 01/00 Q1008 NOSIG
LFPG 202230Z 07006KT 6000 NSC 01/00 Q1008 NOSIG
LFPG 202200Z 08006KT 7000 NSC 02/00 Q1008 NOSIG
LFPG 202130Z 09005KT 7000 FEW007 02/00 Q1009 NOSIG
LFPG 202100Z 11010KT 7000 FEW007 02/00 Q1009 NOSIG
LFPG 202030Z 11011KT 9999 FEW007 02/00 Q1009 TEMPO BKN007
LFPG 202000Z 11012KT CAVOK 02/00 Q1009 NOSIG
LFPG 201930Z 11012KT CAVOK 02/00 Q1009 NOSIG